sensor_id;sensor_type;location;lat;lon;timestamp;P1;durP1;ratioP1;P2;durP2;ratioP2
76053;SDS011;64752;48.870;9.082;2023-02-01T00:02:20;4.32;;;2.30;;
76053;SDS011;64752;48.870;9.082;2023-02-01T00:04:46;4.13;;;2.37;;
76053;SDS011;64752;48.870;9.082;2023-02-01T00:07:12;7.00;;;2.38;;
76053;SDS011;64752;48.870;9.082;2023-02-01T00:09:37;4.45;;;2.40;;
76053;SDS011;64752;48.870;9.082;2023-02-01T00:12:02;3.10;;;2.23;;
76053;SDS011;64752;48.870;9.082;2023-02-01T00:14:28;6.28;;;2.30;;
76053;SDS011;64752;48.870;9.082;2023-02-01T00:16:53;3.10;;;1.97;;
76053;SDS011;64752;48.870;9.082;2023-02-01T00:19:19;5.07;;;2.70;;
76053;SDS011;64752;48.870;9.082;2023-02-01T00:21:44;4.50;;;2.28;;
76053;SDS011;64752;48.870;9.082;2023-02-01T00:24:10;4.68;;;2.50;;
76053;SDS011;64752;48.870;9.082;2023-02-01T00:26:37;3.65;;;2.17;;
76053;SDS011;64752;48.870;9.082;2023-02-01T00:29:03;3.28;;;2.50;;
76053;SDS011;64752;48.870;9.082;2023-02-01T00:31:28;3.37;;;2.27;;
76053;SDS011;64752;48.870;9.082;2023-02-01T00:33:54;5.73;;;2.50;;
76053;SDS011;64752;48.870;9.082;2023-02-01T00:36:19;4.63;;;2.60;;
76053;SDS011;64752;48.870;9.082;2023-02-01T00:38:44;3.45;;;2.00;;
76053;SDS011;64752;48.870;9.082;2023-02-01T00:41:10;3.05;;;2.25;;
76053;SDS011;64752;48.870;9.082;2023-02-01T00:43:36;3.15;;;2.17;;
76053;SDS011;64752;48.870;9.082;2023-02-01T00:46:01;4.10;;;2.20;;
76053;SDS011;64752;48.870;9.082;2023-02-01T00:48:26;3.03;;;2.00;;
76053;SDS011;64752;48.870;9.082;2023-02-01T00:50:52;2.97;;;1.65;;
76053;SDS011;64752;48.870;9.082;2023-02-01T00:53:17;3.58;;;2.22;;
76053;SDS011;64752;48.870;9.082;2023-02-01T00:55:48;4.80;;;2.00;;
76053;SDS011;64752;48.870;9.082;2023-02-01T00:58:14;5.10;;;2.20;;
76053;SDS011;64752;48.870;9.082;2023-02-01T01:00:39;4.88;;;2.17;;
76053;SDS011;64752;48.870;9.082;2023-02-01T01:03:04;4.90;;;2.28;;
76053;SDS011;64752;48.870;9.082;2023-02-01T01:05:46;3.55;;;2.15;;
76053;SDS011;64752;48.870;9.082;2023-02-01T01:08:11;4.60;;;2.30;;
76053;SDS011;64752;48.870;9.082;2023-02-01T01:10:37;4.88;;;2.60;;
76053;SDS011;64752;48.870;9.082;2023-02-01T01:13:02;2.88;;;2.25;;
76053;SDS011;64752;48.870;9.082;2023-02-01T01:15:27;4.65;;;2.88;;
76053;SDS011;64752;48.870;9.082;2023-02-01T01:17:52;3.33;;;2.40;;
76053;SDS011;64752;48.870;9.082;2023-02-01T01:20:17;3.40;;;2.17;;
76053;SDS011;64752;48.870;9.082;2023-02-01T01:22:46;4.70;;;2.63;;
76053;SDS011;64752;48.870;9.082;2023-02-01T01:25:11;4.10;;;2.72;;
76053;SDS011;64752;48.870;9.082;2023-02-01T01:27:36;3.88;;;2.50;;
76053;SDS011;64752;48.870;9.082;2023-02-01T01:30:02;4.57;;;2.60;;
76053;SDS011;64752;48.870;9.082;2023-02-01T01:32:27;4.78;;;2.95;;
76053;SDS011;64752;48.870;9.082;2023-02-01T01:34:52;2.90;;;2.28;;
76053;SDS011;64752;48.870;9.082;2023-02-01T01:37:17;3.33;;;2.50;;
76053;SDS011;64752;48.870;9.082;2023-02-01T01:39:42;3.70;;;2.50;;
76053;SDS011;64752;48.870;9.082;2023-02-01T01:42:10;4.10;;;2.72;;
76053;SDS011;64752;48.870;9.082;2023-02-01T01:44:57;4.10;;;2.70;;
76053;SDS011;64752;48.870;9.082;2023-02-01T01:47:22;4.65;;;2.80;;
76053;SDS011;64752;48.870;9.082;2023-02-01T01:49:48;6.38;;;3.00;;
76053;SDS011;64752;48.870;9.082;2023-02-01T01:52:13;3.47;;;2.35;;
76053;SDS011;64752;48.870;9.082;2023-02-01T01:54:43;3.42;;;2.28;;
76053;SDS011;64752;48.870;9.082;2023-02-01T01:57:53;3.45;;;2.25;;
76053;SDS011;64752;48.870;9.082;2023-02-01T02:00:09;4.43;;;2.30;;
76053;SDS011;64752;48.870;9.082;2023-02-01T02:02:35;3.50;;;2.50;;
76053;SDS011;64752;48.870;9.082;2023-02-01T02:05:00;3.42;;;1.90;;
76053;SDS011;64752;48.870;9.082;2023-02-01T02:07:28;3.17;;;2.13;;
76053;SDS011;64752;48.870;9.082;2023-02-01T02:09:54;2.90;;;2.20;;
76053;SDS011;64752;48.870;9.082;2023-02-01T02:12:20;3.65;;;1.83;;
76053;SDS011;64752;48.870;9.082;2023-02-01T02:14:45;3.58;;;1.92;;
76053;SDS011;64752;48.870;9.082;2023-02-01T02:30:34;2.92;;;1.40;;
76053;SDS011;64752;48.870;9.082;2023-02-01T02:33:21;2.40;;;1.52;;
76053;SDS011;64752;48.870;9.082;2023-02-01T02:38:28;2.80;;;1.60;;
76053;SDS011;64752;48.870;9.082;2023-02-01T02:41:10;2.22;;;1.40;;
76053;SDS011;64752;48.870;9.082;2023-02-01T02:43:58;2.50;;;1.60;;
76053;SDS011;64752;48.870;9.082;2023-02-01T02:46:44;2.80;;;1.15;;
76053;SDS011;64752;48.870;9.082;2023-02-01T02:49:34;2.50;;;1.60;;
76053;SDS011;64752;48.870;9.082;2023-02-01T02:52:02;2.50;;;1.60;;
76053;SDS011;64752;48.870;9.082;2023-02-01T02:54:47;1.42;;;1.27;;
76053;SDS011;64752;48.870;9.082;2023-02-01T03:00:09;1.77;;;1.35;;
76053;SDS011;64752;48.870;9.082;2023-02-01T03:02:54;2.30;;;1.58;;
76053;SDS011;64752;48.870;9.082;2023-02-01T03:05:40;2.25;;;1.50;;
76053;SDS011;64752;48.870;9.082;2023-02-01T03:13:51;3.10;;;1.70;;
76053;SDS011;64752;48.870;9.082;2023-02-01T03:16:06;3.13;;;1.98;;
76053;SDS011;64752;48.870;9.082;2023-02-01T03:18:42;2.97;;;2.00;;
76053;SDS011;64752;48.870;9.082;2023-02-01T03:21:11;2.13;;;1.60;;
76053;SDS011;64752;48.870;9.082;2023-02-01T03:23:37;2.70;;;1.70;;
76053;SDS011;64752;48.870;9.082;2023-02-01T03:26:07;3.17;;;2.10;;
76053;SDS011;64752;48.870;9.082;2023-02-01T03:28:34;3.35;;;2.13;;
76053;SDS011;64752;48.870;9.082;2023-02-01T03:30:59;4.55;;;2.30;;
76053;SDS011;64752;48.870;9.082;2023-02-01T03:33:25;3.13;;;2.28;;
76053;SDS011;64752;48.870;9.082;2023-02-01T03:38:20;4.68;;;2.30;;
76053;SDS011;64752;48.870;9.082;2023-02-01T03:40:47;4.07;;;2.03;;
76053;SDS011;64752;48.870;9.082;2023-02-01T03:43:14;2.72;;;1.77;;
76053;SDS011;64752;48.870;9.082;2023-02-01T03:45:43;3.17;;;2.20;;
76053;SDS011;64752;48.870;9.082;2023-02-01T03:48:08;2.65;;;1.88;;
76053;SDS011;64752;48.870;9.082;2023-02-01T03:50:35;3.15;;;1.85;;
76053;SDS011;64752;48.870;9.082;2023-02-01T03:53:10;4.75;;;1.63;;
76053;SDS011;64752;48.870;9.082;2023-02-01T03:55:38;1.83;;;1.35;;
76053;SDS011;64752;48.870;9.082;2023-02-01T03:58:06;2.58;;;1.58;;
76053;SDS011;64752;48.870;9.082;2023-02-01T04:00:32;1.90;;;1.60;;
76053;SDS011;64752;48.870;9.082;2023-02-01T04:02:57;2.78;;;1.65;;
76053;SDS011;64752;48.870;9.082;2023-02-01T04:05:23;2.47;;;1.80;;
76053;SDS011;64752;48.870;9.082;2023-02-01T04:07:48;2.60;;;1.63;;
76053;SDS011;64752;48.870;9.082;2023-02-01T04:10:14;2.92;;;2.00;;
76053;SDS011;64752;48.870;9.082;2023-02-01T04:12:40;4.30;;;1.90;;
76053;SDS011;64752;48.870;9.082;2023-02-01T04:15:06;2.67;;;1.67;;
76053;SDS011;64752;48.870;9.082;2023-02-01T04:17:31;2.40;;;1.67;;
76053;SDS011;64752;48.870;9.082;2023-02-01T04:19:56;2.90;;;1.92;;
76053;SDS011;64752;48.870;9.082;2023-02-01T04:22:21;1.90;;;1.47;;
76053;SDS011;64752;48.870;9.082;2023-02-01T04:24:47;3.55;;;1.90;;
76053;SDS011;64752;48.870;9.082;2023-02-01T04:27:12;2.25;;;1.83;;
76053;SDS011;64752;48.870;9.082;2023-02-01T04:29:38;3.35;;;2.00;;
76053;SDS011;64752;48.870;9.082;2023-02-01T04:32:04;2.38;;;1.63;;
76053;SDS011;64752;48.870;9.082;2023-02-01T04:34:29;2.28;;;1.58;;
76053;SDS011;64752;48.870;9.082;2023-02-01T04:36:54;2.40;;;1.40;;
76053;SDS011;64752;48.870;9.082;2023-02-01T04:39:19;3.30;;;2.53;;
76053;SDS011;64752;48.870;9.082;2023-02-01T04:41:45;5.05;;;2.45;;
76053;SDS011;64752;48.870;9.082;2023-02-01T04:44:14;3.58;;;2.05;;
76053;SDS011;64752;48.870;9.082;2023-02-01T04:46:39;2.58;;;1.63;;
76053;SDS011;64752;48.870;9.082;2023-02-01T04:49:05;3.22;;;1.88;;
76053;SDS011;64752;48.870;9.082;2023-02-01T04:51:30;2.15;;;1.60;;
76053;SDS011;64752;48.870;9.082;2023-02-01T04:53:55;2.17;;;1.50;;
76053;SDS011;64752;48.870;9.082;2023-02-01T04:56:20;6.30;;;2.80;;
76053;SDS011;64752;48.870;9.082;2023-02-01T04:58:46;2.58;;;1.83;;
76053;SDS011;64752;48.870;9.082;2023-02-01T05:01:11;5.38;;;2.53;;
76053;SDS011;64752;48.870;9.082;2023-02-01T05:03:36;4.57;;;2.33;;
76053;SDS011;64752;48.870;9.082;2023-02-01T05:06:01;4.17;;;2.07;;
76053;SDS011;64752;48.870;9.082;2023-02-01T05:08:28;2.95;;;1.83;;
76053;SDS011;64752;48.870;9.082;2023-02-01T05:10:54;3.25;;;1.60;;
76053;SDS011;64752;48.870;9.082;2023-02-01T05:13:19;2.83;;;1.65;;
76053;SDS011;64752;48.870;9.082;2023-02-01T05:16:03;3.78;;;1.20;;
76053;SDS011;64752;48.870;9.082;2023-02-01T05:18:29;2.75;;;1.25;;
76053;SDS011;64752;48.870;9.082;2023-02-01T05:20:55;2.75;;;1.40;;
76053;SDS011;64752;48.870;9.082;2023-02-01T05:23:20;2.72;;;1.48;;
76053;SDS011;64752;48.870;9.082;2023-02-01T05:25:45;2.30;;;1.13;;
76053;SDS011;64752;48.870;9.082;2023-02-01T05:28:10;3.58;;;1.40;;
76053;SDS011;64752;48.870;9.082;2023-02-01T05:30:36;2.22;;;1.35;;
76053;SDS011;64752;48.870;9.082;2023-02-01T05:33:01;3.97;;;1.60;;
76053;SDS011;64752;48.870;9.082;2023-02-01T05:35:27;4.27;;;1.33;;
76053;SDS011;64752;48.870;9.082;2023-02-01T05:37:52;3.70;;;1.77;;
76053;SDS011;64752;48.870;9.082;2023-02-01T05:40:17;2.93;;;1.53;;
76053;SDS011;64752;48.870;9.082;2023-02-01T05:42:42;2.50;;;1.45;;
76053;SDS011;64752;48.870;9.082;2023-02-01T05:45:08;4.35;;;1.38;;
76053;SDS011;64752;48.870;9.082;2023-02-01T05:47:33;3.40;;;1.35;;
76053;SDS011;64752;48.870;9.082;2023-02-01T05:49:58;3.08;;;1.40;;
76053;SDS011;64752;48.870;9.082;2023-02-01T05:52:24;4.68;;;1.58;;
76053;SDS011;64752;48.870;9.082;2023-02-01T05:54:49;2.47;;;1.48;;
76053;SDS011;64752;48.870;9.082;2023-02-01T05:57:14;2.85;;;1.20;;
76053;SDS011;64752;48.870;9.082;2023-02-01T05:59:39;3.38;;;1.13;;
76053;SDS011;64752;48.870;9.082;2023-02-01T06:02:09;2.42;;;1.20;;
76053;SDS011;64752;48.870;9.082;2023-02-01T06:04:35;2.42;;;1.70;;
76053;SDS011;64752;48.870;9.082;2023-02-01T06:07:00;4.72;;;1.40;;
76053;SDS011;64752;48.870;9.082;2023-02-01T06:09:25;4.22;;;1.20;;
76053;SDS011;64752;48.870;9.082;2023-02-01T06:11:50;1.70;;;1.10;;
76053;SDS011;64752;48.870;9.082;2023-02-01T06:14:16;2.05;;;1.40;;
76053;SDS011;64752;48.870;9.082;2023-02-01T06:16:41;3.28;;;1.45;;
76053;SDS011;64752;48.870;9.082;2023-02-01T06:19:06;4.43;;;1.88;;
76053;SDS011;64752;48.870;9.082;2023-02-01T06:21:31;2.70;;;1.63;;
76053;SDS011;64752;48.870;9.082;2023-02-01T06:23:58;5.05;;;2.00;;
76053;SDS011;64752;48.870;9.082;2023-02-01T06:26:23;6.90;;;2.22;;
76053;SDS011;64752;48.870;9.082;2023-02-01T06:28:49;6.88;;;2.45;;
76053;SDS011;64752;48.870;9.082;2023-02-01T06:31:14;5.40;;;2.47;;
76053;SDS011;64752;48.870;9.082;2023-02-01T06:33:39;10.50;;;3.33;;
76053;SDS011;64752;48.870;9.082;2023-02-01T06:36:05;8.05;;;2.97;;
76053;SDS011;64752;48.870;9.082;2023-02-01T06:38:31;7.05;;;3.22;;
76053;SDS011;64752;48.870;9.082;2023-02-01T06:40:59;8.52;;;3.58;;
76053;SDS011;64752;48.870;9.082;2023-02-01T06:43:25;7.30;;;3.60;;
76053;SDS011;64752;48.870;9.082;2023-02-01T06:45:50;8.03;;;3.00;;
76053;SDS011;64752;48.870;9.082;2023-02-01T06:48:15;7.70;;;3.60;;
76053;SDS011;64752;48.870;9.082;2023-02-01T06:50:41;6.07;;;3.25;;
76053;SDS011;64752;48.870;9.082;2023-02-01T06:53:06;7.57;;;3.50;;
76053;SDS011;64752;48.870;9.082;2023-02-01T06:55:31;9.03;;;3.30;;
76053;SDS011;64752;48.870;9.082;2023-02-01T06:57:57;6.07;;;3.63;;
76053;SDS011;64752;48.870;9.082;2023-02-01T07:00:22;9.38;;;3.45;;
76053;SDS011;64752;48.870;9.082;2023-02-01T07:02:47;6.18;;;2.95;;
76053;SDS011;64752;48.870;9.082;2023-02-01T07:05:13;7.22;;;3.05;;
76053;SDS011;64752;48.870;9.082;2023-02-01T07:07:38;13.33;;;3.63;;
76053;SDS011;64752;48.870;9.082;2023-02-01T07:10:03;8.03;;;2.90;;
76053;SDS011;64752;48.870;9.082;2023-02-01T07:12:29;9.73;;;3.93;;
76053;SDS011;64752;48.870;9.082;2023-02-01T07:14:54;11.75;;;3.30;;
76053;SDS011;64752;48.870;9.082;2023-02-01T07:17:19;6.47;;;3.42;;
76053;SDS011;64752;48.870;9.082;2023-02-01T07:19:44;9.32;;;3.50;;
76053;SDS011;64752;48.870;9.082;2023-02-01T07:22:09;9.25;;;3.55;;
76053;SDS011;64752;48.870;9.082;2023-02-01T07:24:35;11.77;;;3.35;;
76053;SDS011;64752;48.870;9.082;2023-02-01T07:27:00;11.32;;;3.72;;
76053;SDS011;64752;48.870;9.082;2023-02-01T07:29:25;10.02;;;3.30;;
76053;SDS011;64752;48.870;9.082;2023-02-01T07:31:50;11.23;;;3.58;;
76053;SDS011;64752;48.870;9.082;2023-02-01T07:34:15;11.38;;;4.15;;
76053;SDS011;64752;48.870;9.082;2023-02-01T07:36:41;9.30;;;3.20;;
76053;SDS011;64752;48.870;9.082;2023-02-01T07:39:06;10.00;;;3.03;;
76053;SDS011;64752;48.870;9.082;2023-02-01T07:41:32;13.35;;;3.85;;
76053;SDS011;64752;48.870;9.082;2023-02-01T07:43:57;7.97;;;3.20;;
76053;SDS011;64752;48.870;9.082;2023-02-01T07:46:22;10.27;;;3.30;;
76053;SDS011;64752;48.870;9.082;2023-02-01T07:48:48;10.50;;;2.97;;
76053;SDS011;64752;48.870;9.082;2023-02-01T07:51:14;11.70;;;3.47;;
76053;SDS011;64752;48.870;9.082;2023-02-01T07:53:39;7.97;;;3.38;;
76053;SDS011;64752;48.870;9.082;2023-02-01T07:56:09;15.88;;;4.00;;
76053;SDS011;64752;48.870;9.082;2023-02-01T07:58:35;8.60;;;3.50;;
76053;SDS011;64752;48.870;9.082;2023-02-01T08:01:00;11.70;;;3.83;;
76053;SDS011;64752;48.870;9.082;2023-02-01T08:03:44;12.73;;;3.47;;
76053;SDS011;64752;48.870;9.082;2023-02-01T08:06:09;13.07;;;3.45;;
76053;SDS011;64752;48.870;9.082;2023-02-01T08:08:35;18.05;;;4.35;;
76053;SDS011;64752;48.870;9.082;2023-02-01T08:11:00;13.03;;;3.60;;
76053;SDS011;64752;48.870;9.082;2023-02-01T08:13:26;11.93;;;3.33;;
76053;SDS011;64752;48.870;9.082;2023-02-01T08:15:51;13.20;;;3.47;;
76053;SDS011;64752;48.870;9.082;2023-02-01T08:18:16;8.47;;;2.80;;
76053;SDS011;64752;48.870;9.082;2023-02-01T08:20:43;11.10;;;3.58;;
76053;SDS011;64752;48.870;9.082;2023-02-01T08:23:10;12.35;;;3.40;;
76053;SDS011;64752;48.870;9.082;2023-02-01T08:25:36;11.60;;;2.70;;
76053;SDS011;64752;48.870;9.082;2023-02-01T08:28:01;16.38;;;3.53;;
76053;SDS011;64752;48.870;9.082;2023-02-01T08:30:26;15.32;;;3.55;;
76053;SDS011;64752;48.870;9.082;2023-02-01T08:32:52;12.27;;;2.97;;
76053;SDS011;64752;48.870;9.082;2023-02-01T08:35:17;13.05;;;3.65;;
76053;SDS011;64752;48.870;9.082;2023-02-01T08:37:43;9.60;;;3.03;;
76053;SDS011;64752;48.870;9.082;2023-02-01T08:40:08;11.00;;;3.50;;
76053;SDS011;64752;48.870;9.082;2023-02-01T08:42:33;21.05;;;3.30;;
76053;SDS011;64752;48.870;9.082;2023-02-01T08:45:21;12.73;;;3.75;;
76053;SDS011;64752;48.870;9.082;2023-02-01T08:47:47;13.75;;;3.53;;
76053;SDS011;64752;48.870;9.082;2023-02-01T08:50:12;10.93;;;2.70;;
76053;SDS011;64752;48.870;9.082;2023-02-01T08:52:38;12.23;;;3.10;;
76053;SDS011;64752;48.870;9.082;2023-02-01T08:55:04;10.73;;;2.80;;
76053;SDS011;64752;48.870;9.082;2023-02-01T08:57:29;9.05;;;3.22;;
76053;SDS011;64752;48.870;9.082;2023-02-01T08:59:55;14.32;;;3.75;;
76053;SDS011;64752;48.870;9.082;2023-02-01T09:02:21;10.55;;;3.00;;
76053;SDS011;64752;48.870;9.082;2023-02-01T09:04:46;18.45;;;3.42;;
76053;SDS011;64752;48.870;9.082;2023-02-01T09:07:11;9.45;;;3.72;;
76053;SDS011;64752;48.870;9.082;2023-02-01T09:09:38;11.48;;;4.07;;
76053;SDS011;64752;48.870;9.082;2023-02-01T09:12:03;8.85;;;2.58;;
76053;SDS011;64752;48.870;9.082;2023-02-01T09:14:28;10.32;;;2.60;;
76053;SDS011;64752;48.870;9.082;2023-02-01T09:16:54;10.57;;;3.45;;
76053;SDS011;64752;48.870;9.082;2023-02-01T09:19:19;11.33;;;3.30;;
76053;SDS011;64752;48.870;9.082;2023-02-01T09:21:44;10.93;;;3.33;;
76053;SDS011;64752;48.870;9.082;2023-02-01T09:24:10;11.90;;;3.10;;
76053;SDS011;64752;48.870;9.082;2023-02-01T09:26:35;10.88;;;3.25;;
76053;SDS011;64752;48.870;9.082;2023-02-01T09:29:01;16.00;;;3.58;;
76053;SDS011;64752;48.870;9.082;2023-02-01T09:31:26;15.73;;;3.73;;
76053;SDS011;64752;48.870;9.082;2023-02-01T09:33:51;9.80;;;3.22;;
76053;SDS011;64752;48.870;9.082;2023-02-01T09:36:16;15.25;;;4.18;;
76053;SDS011;64752;48.870;9.082;2023-02-01T09:38:44;12.95;;;3.42;;
76053;SDS011;64752;48.870;9.082;2023-02-01T09:43:56;10.60;;;3.20;;
76053;SDS011;64752;48.870;9.082;2023-02-01T09:46:29;16.52;;;3.70;;
76053;SDS011;64752;48.870;9.082;2023-02-01T09:48:57;15.45;;;3.92;;
76053;SDS011;64752;48.870;9.082;2023-02-01T09:51:25;11.93;;;3.28;;
76053;SDS011;64752;48.870;9.082;2023-02-01T09:54:37;12.43;;;2.78;;
76053;SDS011;64752;48.870;9.082;2023-02-01T09:56:47;16.45;;;3.58;;
76053;SDS011;64752;48.870;9.082;2023-02-01T10:01:47;10.63;;;3.30;;
76053;SDS011;64752;48.870;9.082;2023-02-01T10:04:13;14.38;;;3.35;;
76053;SDS011;64752;48.870;9.082;2023-02-01T10:19:47;13.33;;;3.00;;
76053;SDS011;64752;48.870;9.082;2023-02-01T10:24:47;13.20;;;3.25;;
76053;SDS011;64752;48.870;9.082;2023-02-01T10:27:19;9.50;;;2.83;;
76053;SDS011;64752;48.870;9.082;2023-02-01T10:29:46;15.85;;;3.53;;
76053;SDS011;64752;48.870;9.082;2023-02-01T10:32:14;13.73;;;2.78;;
76053;SDS011;64752;48.870;9.082;2023-02-01T10:34:40;12.40;;;3.40;;
76053;SDS011;64752;48.870;9.082;2023-02-01T10:39:49;15.95;;;3.75;;
76053;SDS011;64752;48.870;9.082;2023-02-01T10:42:24;16.00;;;3.65;;
76053;SDS011;64752;48.870;9.082;2023-02-01T10:44:50;13.27;;;2.85;;
76053;SDS011;64752;48.870;9.082;2023-02-01T10:47:15;13.55;;;2.67;;
76053;SDS011;64752;48.870;9.082;2023-02-01T10:49:43;20.90;;;3.47;;
76053;SDS011;64752;48.870;9.082;2023-02-01T10:54:49;14.73;;;2.92;;
76053;SDS011;64752;48.870;9.082;2023-02-01T10:57:25;13.15;;;3.45;;
76053;SDS011;64752;48.870;9.082;2023-02-01T10:59:51;10.15;;;2.65;;
76053;SDS011;64752;48.870;9.082;2023-02-01T11:02:29;13.48;;;3.53;;
76053;SDS011;64752;48.870;9.082;2023-02-01T11:05:02;13.35;;;4.05;;
76053;SDS011;64752;48.870;9.082;2023-02-01T11:07:28;16.92;;;3.10;;
76053;SDS011;64752;48.870;9.082;2023-02-01T11:09:54;15.40;;;3.05;;
76053;SDS011;64752;48.870;9.082;2023-02-01T11:14:54;9.25;;;2.95;;
76053;SDS011;64752;48.870;9.082;2023-02-01T11:17:24;13.52;;;3.28;;
76053;SDS011;64752;48.870;9.082;2023-02-01T11:19:58;16.10;;;3.00;;
76053;SDS011;64752;48.870;9.082;2023-02-01T11:22:25;14.13;;;3.00;;
76053;SDS011;64752;48.870;9.082;2023-02-01T11:24:51;12.93;;;3.33;;
76053;SDS011;64752;48.870;9.082;2023-02-01T11:27:17;14.68;;;3.53;;
76053;SDS011;64752;48.870;9.082;2023-02-01T11:29:46;11.55;;;3.75;;
76053;SDS011;64752;48.870;9.082;2023-02-01T11:32:14;13.50;;;2.70;;
76053;SDS011;64752;48.870;9.082;2023-02-01T11:34:47;12.20;;;3.13;;
76053;SDS011;64752;48.870;9.082;2023-02-01T11:37:16;9.57;;;2.30;;
76053;SDS011;64752;48.870;9.082;2023-02-01T11:39:44;9.82;;;2.13;;
76053;SDS011;64752;48.870;9.082;2023-02-01T11:42:18;11.55;;;3.45;;
76053;SDS011;64752;48.870;9.082;2023-02-01T11:44:44;10.95;;;2.60;;
76053;SDS011;64752;48.870;9.082;2023-02-01T11:49:45;9.98;;;2.10;;
76053;SDS011;64752;48.870;9.082;2023-02-01T11:57:13;11.27;;;2.88;;
76053;SDS011;64752;48.870;9.082;2023-02-01T11:59:49;9.63;;;2.03;;
76053;SDS011;64752;48.870;9.082;2023-02-01T12:05:06;9.15;;;2.45;;
76053;SDS011;64752;48.870;9.082;2023-02-01T12:18:02;12.30;;;3.03;;
76053;SDS011;64752;48.870;9.082;2023-02-01T12:20:44;10.55;;;2.30;;
76053;SDS011;64752;48.870;9.082;2023-02-01T12:36:12;10.93;;;2.38;;
76053;SDS011;64752;48.870;9.082;2023-02-01T12:38:54;10.63;;;2.63;;
76053;SDS011;64752;48.870;9.082;2023-02-01T12:44:00;11.50;;;3.22;;
76053;SDS011;64752;48.870;9.082;2023-02-01T12:46:46;14.95;;;4.10;;
76053;SDS011;64752;48.870;9.082;2023-02-01T12:52:04;14.88;;;3.80;;
76053;SDS011;64752;48.870;9.082;2023-02-01T12:54:36;13.75;;;2.90;;
76053;SDS011;64752;48.870;9.082;2023-02-01T13:02:39;11.50;;;2.53;;
76053;SDS011;64752;48.870;9.082;2023-02-01T13:07:44;14.15;;;3.75;;
76053;SDS011;64752;48.870;9.082;2023-02-01T13:12:56;14.27;;;3.17;;
76053;SDS011;64752;48.870;9.082;2023-02-01T13:15:30;11.85;;;3.35;;
76053;SDS011;64752;48.870;9.082;2023-02-01T13:17:57;14.85;;;2.80;;
76053;SDS011;64752;48.870;9.082;2023-02-01T13:22:54;14.45;;;3.42;;
76053;SDS011;64752;48.870;9.082;2023-02-01T13:28:03;12.30;;;3.33;;
76053;SDS011;64752;48.870;9.082;2023-02-01T13:30:47;16.33;;;3.25;;
76053;SDS011;64752;48.870;9.082;2023-02-01T13:39:02;12.05;;;3.00;;
76053;SDS011;64752;48.870;9.082;2023-02-01T13:41:31;12.63;;;2.88;;
76053;SDS011;64752;48.870;9.082;2023-02-01T13:43:58;12.88;;;2.72;;
76053;SDS011;64752;48.870;9.082;2023-02-01T13:46:24;10.45;;;2.80;;
76053;SDS011;64752;48.870;9.082;2023-02-01T13:49:00;10.57;;;2.47;;
76053;SDS011;64752;48.870;9.082;2023-02-01T13:51:32;11.10;;;2.63;;
76053;SDS011;64752;48.870;9.082;2023-02-01T13:53:58;11.05;;;2.60;;
76053;SDS011;64752;48.870;9.082;2023-02-01T13:56:23;12.70;;;2.45;;
76053;SDS011;64752;48.870;9.082;2023-02-01T13:58:52;11.87;;;3.20;;
76053;SDS011;64752;48.870;9.082;2023-02-01T14:03:46;11.50;;;2.65;;
76053;SDS011;64752;48.870;9.082;2023-02-01T14:11:44;11.15;;;2.67;;
76053;SDS011;64752;48.870;9.082;2023-02-01T14:14:52;12.60;;;2.97;;
76053;SDS011;64752;48.870;9.082;2023-02-01T14:19:33;12.43;;;3.13;;
76053;SDS011;64752;48.870;9.082;2023-02-01T14:21:59;11.50;;;2.92;;
76053;SDS011;64752;48.870;9.082;2023-02-01T14:24:32;15.43;;;3.10;;
76053;SDS011;64752;48.870;9.082;2023-02-01T14:26:59;14.02;;;2.75;;
76053;SDS011;64752;48.870;9.082;2023-02-01T14:29:26;14.85;;;2.90;;
76053;SDS011;64752;48.870;9.082;2023-02-01T14:34:42;9.60;;;3.05;;
76053;SDS011;64752;48.870;9.082;2023-02-01T14:42:20;13.45;;;2.65;;
76053;SDS011;64752;48.870;9.082;2023-02-01T14:44:54;12.27;;;3.20;;
76053;SDS011;64752;48.870;9.082;2023-02-01T14:52:20;12.38;;;2.65;;
76053;SDS011;64752;48.870;9.082;2023-02-01T14:54:49;14.45;;;3.40;;
76053;SDS011;64752;48.870;9.082;2023-02-01T14:57:16;18.00;;;3.78;;
76053;SDS011;64752;48.870;9.082;2023-02-01T14:59:44;18.35;;;3.20;;
76053;SDS011;64752;48.870;9.082;2023-02-01T15:02:18;8.90;;;2.45;;
76053;SDS011;64752;48.870;9.082;2023-02-01T15:04:45;11.00;;;3.28;;
76053;SDS011;64752;48.870;9.082;2023-02-01T15:07:11;15.38;;;3.05;;
76053;SDS011;64752;48.870;9.082;2023-02-01T15:09:38;11.25;;;2.70;;
76053;SDS011;64752;48.870;9.082;2023-02-01T15:14:42;12.38;;;2.63;;
76053;SDS011;64752;48.870;9.082;2023-02-01T15:17:27;13.65;;;3.25;;
76053;SDS011;64752;48.870;9.082;2023-02-01T15:20:17;9.23;;;2.67;;
76053;SDS011;64752;48.870;9.082;2023-02-01T15:22:51;7.90;;;2.22;;
76053;SDS011;64752;48.870;9.082;2023-02-01T15:25:18;10.32;;;2.55;;
76053;SDS011;64752;48.870;9.082;2023-02-01T15:27:44;12.23;;;2.38;;
76053;SDS011;64752;48.870;9.082;2023-02-01T15:30:22;10.25;;;2.72;;
76053;SDS011;64752;48.870;9.082;2023-02-01T15:32:48;12.90;;;3.47;;
76053;SDS011;64752;48.870;9.082;2023-02-01T15:43:21;15.98;;;2.85;;
76053;SDS011;64752;48.870;9.082;2023-02-01T15:45:47;20.60;;;3.43;;
76053;SDS011;64752;48.870;9.082;2023-02-01T15:48:15;6.97;;;2.38;;
76053;SDS011;64752;48.870;9.082;2023-02-01T15:50:41;7.10;;;2.30;;
76053;SDS011;64752;48.870;9.082;2023-02-01T15:53:09;18.25;;;3.63;;
76053;SDS011;64752;48.870;9.082;2023-02-01T15:55:38;11.40;;;2.95;;
76053;SDS011;64752;48.870;9.082;2023-02-01T16:00:31;9.38;;;2.42;;
76053;SDS011;64752;48.870;9.082;2023-02-01T16:03:03;13.73;;;2.45;;
76053;SDS011;64752;48.870;9.082;2023-02-01T16:08:28;12.52;;;2.80;;
76053;SDS011;64752;48.870;9.082;2023-02-01T16:10:49;13.35;;;2.47;;
76053;SDS011;64752;48.870;9.082;2023-02-01T16:13:15;12.45;;;2.75;;
76053;SDS011;64752;48.870;9.082;2023-02-01T16:15:43;10.48;;;2.70;;
76053;SDS011;64752;48.870;9.082;2023-02-01T16:18:09;11.80;;;2.63;;
76053;SDS011;64752;48.870;9.082;2023-02-01T16:20:35;14.50;;;2.55;;
76053;SDS011;64752;48.870;9.082;2023-02-01T16:23:01;10.13;;;2.50;;
76053;SDS011;64752;48.870;9.082;2023-02-01T16:25:26;16.52;;;3.00;;
76053;SDS011;64752;48.870;9.082;2023-02-01T16:27:54;15.23;;;2.67;;
76053;SDS011;64752;48.870;9.082;2023-02-01T16:30:23;11.52;;;2.75;;
76053;SDS011;64752;48.870;9.082;2023-02-01T16:32:51;13.05;;;2.97;;
76053;SDS011;64752;48.870;9.082;2023-02-01T16:35:33;11.95;;;2.75;;
76053;SDS011;64752;48.870;9.082;2023-02-01T16:38:05;13.93;;;2.70;;
76053;SDS011;64752;48.870;9.082;2023-02-01T16:40:37;12.25;;;2.53;;
76053;SDS011;64752;48.870;9.082;2023-02-01T16:43:07;12.38;;;2.60;;
76053;SDS011;64752;48.870;9.082;2023-02-01T16:45:33;11.45;;;2.63;;
76053;SDS011;64752;48.870;9.082;2023-02-01T16:47:58;18.48;;;4.05;;
76053;SDS011;64752;48.870;9.082;2023-02-01T16:50:24;12.10;;;2.80;;
76053;SDS011;64752;48.870;9.082;2023-02-01T16:52:51;19.58;;;4.70;;
76053;SDS011;64752;48.870;9.082;2023-02-01T16:55:17;14.25;;;3.28;;
76053;SDS011;64752;48.870;9.082;2023-02-01T16:57:43;14.53;;;4.57;;
76053;SDS011;64752;48.870;9.082;2023-02-01T17:00:10;14.30;;;4.13;;
76053;SDS011;64752;48.870;9.082;2023-02-01T17:02:36;21.45;;;4.50;;
76053;SDS011;64752;48.870;9.082;2023-02-01T17:05:02;12.18;;;3.22;;
76053;SDS011;64752;48.870;9.082;2023-02-01T17:07:27;14.02;;;3.97;;
76053;SDS011;64752;48.870;9.082;2023-02-01T17:09:52;14.57;;;4.47;;
76053;SDS011;64752;48.870;9.082;2023-02-01T17:14:49;13.80;;;3.35;;
76053;SDS011;64752;48.870;9.082;2023-02-01T17:17:15;8.20;;;1.98;;
76053;SDS011;64752;48.870;9.082;2023-02-01T17:19:40;10.40;;;2.78;;
76053;SDS011;64752;48.870;9.082;2023-02-01T17:22:06;14.90;;;3.10;;
76053;SDS011;64752;48.870;9.082;2023-02-01T17:24:31;13.47;;;2.60;;